createdAt,value
2023-05-05T00:02:00.244Z,91.54
2023-05-05T00:04:29.183Z,90.61
2023-05-05T00:06:57.177Z,86.61
2023-05-05T00:09:24.637Z,83.81
2023-05-05T00:11:52.121Z,85.34
2023-05-05T00:14:19.612Z,84.27
2023-05-05T00:16:47.266Z,87.89
2023-05-05T00:19:14.881Z,88.02
2023-05-05T00:21:43.683Z,86.80
2023-05-05T00:24:11.422Z,87.00
2023-05-05T00:26:38.878Z,86.70
2023-05-05T00:29:06.350Z,87.37
2023-05-05T00:31:34.037Z,87.29
2023-05-05T00:34:01.689Z,87.68
2023-05-05T00:36:30.395Z,88.42
2023-05-05T00:38:59.205Z,88.23
2023-05-05T00:41:26.755Z,88.05
2023-05-05T00:43:54.218Z,87.30
2023-05-05T00:46:25.686Z,89.34
2023-05-05T00:48:53.787Z,88.41
2023-05-05T00:51:22.764Z,87.39
2023-05-05T00:53:50.946Z,87.07
2023-05-05T00:56:22.090Z,87.58
2023-05-05T00:58:50.319Z,88.63
2023-05-05T01:01:18.919Z,89.48
2023-05-05T01:03:46.641Z,90.70
2023-05-05T01:06:27.993Z,93.37
2023-05-05T01:09:05.427Z,91.98
2023-05-05T01:11:41.969Z,90.94
2023-05-05T01:14:14.379Z,89.93
2023-05-05T01:16:53.449Z,89.67
2023-05-05T01:19:41.346Z,88.51
2023-05-05T01:22:12.688Z,87.82
2023-05-05T01:24:50.723Z,89.96
2023-05-05T01:27:34.998Z,89.39
2023-05-05T01:30:16.533Z,88.17
2023-05-05T01:32:49.824Z,86.92
2023-05-05T01:35:23.473Z,87.35
2023-05-05T01:37:56.957Z,87.53
2023-05-05T01:40:27.807Z,87.36
2023-05-05T01:42:56.007Z,87.45
2023-05-05T01:45:27.336Z,87.75
2023-05-05T01:47:58.109Z,87.11
2023-05-05T01:50:28.942Z,86.84
2023-05-05T01:52:57.878Z,86.87
2023-05-05T01:55:26.883Z,87.55
2023-05-05T01:57:58.662Z,90.23
2023-05-05T02:00:27.026Z,87.70
2023-05-05T02:02:57.989Z,86.36
2023-05-05T02:05:26.503Z,84.96
2023-05-05T02:07:57.827Z,84.02
2023-05-05T02:10:25.673Z,81.52
2023-05-05T02:12:54.851Z,81.60
2023-05-05T02:15:24.500Z,82.01
2023-05-05T02:17:53.014Z,82.67
2023-05-05T02:20:23.426Z,83.58
2023-05-05T02:22:51.070Z,83.81
2023-05-05T02:25:18.726Z,84.23
2023-05-05T02:27:49.263Z,84.91
2023-05-05T02:30:20.792Z,84.11
2023-05-05T02:32:53.039Z,84.66
2023-05-05T02:35:23.777Z,84.49
2023-05-05T02:37:59.516Z,84.12
2023-05-05T02:40:29.603Z,84.69
2023-05-05T02:42:59.800Z,85.21
2023-05-05T02:45:29.422Z,85.79
2023-05-05T02:47:57.041Z,85.34
2023-05-05T02:50:25.903Z,86.29
2023-05-05T02:52:53.495Z,87.25
2023-05-05T02:55:21.227Z,88.39
2023-05-05T02:57:54.557Z,86.70
2023-05-05T03:00:31.282Z,85.58
2023-05-05T03:03:08.939Z,86.51
2023-05-05T03:05:43.813Z,86.08
2023-05-05T03:08:17.095Z,86.87
2023-05-05T03:10:48.792Z,85.04
2023-05-05T03:13:19.405Z,83.92
2023-05-05T03:15:50.255Z,81.10
2023-05-05T03:18:20.845Z,79.62
2023-05-05T03:20:49.898Z,77.99
2023-05-05T03:23:20.728Z,78.04
2023-05-05T03:25:49.804Z,78.34
2023-05-05T03:28:18.894Z,77.50
2023-05-05T03:30:46.575Z,77.53
2023-05-05T03:33:14.033Z,77.65
2023-05-05T03:35:41.468Z,78.33
2023-05-05T03:38:10.306Z,78.89
2023-05-05T03:40:44.288Z,79.45
2023-05-05T03:43:12.205Z,79.29
2023-05-05T03:45:39.723Z,79.63
2023-05-05T03:48:09.522Z,80.29
2023-05-05T03:50:37.581Z,80.60
2023-05-05T03:53:05.185Z,81.89
2023-05-05T03:55:33.979Z,82.01
2023-05-05T03:58:01.421Z,82.07
2023-05-05T04:00:28.913Z,82.76
2023-05-05T04:02:56.475Z,83.27
2023-05-05T04:05:23.975Z,83.91
2023-05-05T04:07:51.411Z,84.33
2023-05-05T04:10:19.102Z,84.51
2023-05-05T04:12:47.920Z,84.00
2023-05-05T04:15:15.640Z,84.72
2023-05-05T04:17:43.175Z,86.39
2023-05-05T04:20:11.278Z,83.73
2023-05-05T04:22:38.828Z,80.29
2023-05-05T04:25:07.221Z,75.82
2023-05-05T04:27:34.719Z,74.26
2023-05-05T04:30:03.504Z,74.16
2023-05-05T04:32:31.189Z,73.95
2023-05-05T04:34:58.637Z,75.44
2023-05-05T04:37:26.178Z,70.73
2023-05-05T04:39:53.864Z,64.10
2023-05-05T04:42:21.314Z,59.75
2023-05-05T04:44:48.773Z,55.06
2023-05-05T04:47:17.599Z,51.36
2023-05-05T04:49:45.092Z,50.58
2023-05-05T04:52:13.604Z,49.55
2023-05-05T04:54:41.098Z,47.56
2023-05-05T04:57:08.599Z,43.94
2023-05-05T04:59:36.358Z,44.20
2023-05-05T05:02:03.968Z,42.36
2023-05-05T05:04:32.840Z,42.59
2023-05-05T05:07:01.313Z,42.80
2023-05-05T05:09:28.760Z,42.47
2023-05-05T05:12:00.185Z,39.58
2023-05-05T05:14:28.067Z,38.87
2023-05-05T05:16:55.572Z,35.76
2023-05-05T05:19:23.067Z,35.22
2023-05-05T05:21:51.847Z,35.70
2023-05-05T05:24:19.336Z,36.52
2023-05-05T05:26:46.866Z,35.80
2023-05-05T05:29:14.314Z,37.30
2023-05-05T05:31:41.755Z,38.00
2023-05-05T05:34:10.745Z,38.54
2023-05-05T05:36:40.111Z,39.01
2023-05-05T05:39:08.933Z,39.75
2023-05-05T05:41:36.393Z,40.66
2023-05-05T05:44:03.880Z,41.63
2023-05-05T05:46:31.383Z,41.52
2023-05-05T05:48:58.950Z,42.74
2023-05-05T05:51:26.424Z,44.36
2023-05-05T05:53:53.914Z,44.43
2023-05-05T05:56:22.824Z,43.33
2023-05-05T05:58:50.261Z,42.30
2023-05-05T06:01:17.720Z,41.19
2023-05-05T06:03:45.281Z,41.53
2023-05-05T06:06:12.861Z,43.75
2023-05-05T06:08:40.354Z,44.01
2023-05-05T06:11:07.885Z,43.30
2023-05-05T06:13:36.701Z,41.40
2023-05-05T06:16:04.252Z,41.40
2023-05-05T06:18:31.737Z,43.04
2023-05-05T06:21:00.170Z,42.43
2023-05-05T06:23:28.018Z,41.13
2023-05-05T06:25:55.649Z,41.95
2023-05-05T06:28:23.136Z,41.64
2023-05-05T06:30:51.931Z,40.09
2023-05-05T06:33:19.412Z,39.59
2023-05-05T06:35:47.760Z,40.41
2023-05-05T06:38:15.215Z,41.34
2023-05-05T06:40:43.046Z,41.64
2023-05-05T06:43:11.124Z,42.87
2023-05-05T06:45:38.647Z,42.84
2023-05-05T06:48:07.514Z,43.36
2023-05-05T06:50:35.027Z,42.78
2023-05-05T06:53:02.454Z,42.53
2023-05-05T06:55:29.949Z,39.88
2023-05-05T06:57:57.402Z,38.71
2023-05-05T07:00:25.133Z,36.00
2023-05-05T07:02:52.673Z,35.86
2023-05-05T07:05:21.855Z,36.94
2023-05-05T07:07:53.532Z,36.87
2023-05-05T07:10:22.326Z,36.12
2023-05-05T07:12:50.524Z,34.29
2023-05-05T07:15:27.441Z,32.29
2023-05-05T07:17:56.991Z,30.42
2023-05-05T07:20:26.576Z,30.51
2023-05-05T07:22:54.201Z,29.69
2023-05-05T07:25:22.075Z,27.99
2023-05-05T07:27:49.555Z,27.59
2023-05-05T07:30:18.748Z,27.18
2023-05-05T07:32:46.996Z,27.81
2023-05-05T07:35:14.722Z,28.01
2023-05-05T07:37:43.526Z,27.88
2023-05-05T07:40:11.787Z,27.44
2023-05-05T07:42:39.402Z,27.14
2023-05-05T07:45:07.919Z,26.44
2023-05-05T07:47:35.445Z,26.54
2023-05-05T07:50:02.977Z,26.71
2023-05-05T07:52:45.130Z,26.27
2023-05-05T07:55:17.036Z,25.84
2023-05-05T07:57:44.515Z,25.36
2023-05-05T08:00:13.794Z,25.26
2023-05-05T08:02:41.693Z,25.04
2023-05-05T08:05:10.041Z,26.00
2023-05-05T08:07:41.105Z,26.48
2023-05-05T08:10:10.541Z,26.94
2023-05-05T08:12:39.560Z,26.72
2023-05-05T08:15:08.161Z,26.90
2023-05-05T08:17:47.200Z,27.95
2023-05-05T08:20:14.796Z,28.40
2023-05-05T08:22:42.913Z,28.34
2023-05-05T08:25:11.473Z,29.65
2023-05-05T08:27:41.708Z,28.55
2023-05-05T08:30:10.262Z,30.25
2023-05-05T08:32:38.283Z,32.64
2023-05-05T08:35:07.264Z,31.45
2023-05-05T08:37:35.236Z,30.36
2023-05-05T08:40:02.704Z,30.23
2023-05-05T08:42:38.060Z,28.80
2023-05-05T08:45:10.183Z,28.87
2023-05-05T08:47:39.597Z,29.83
2023-05-05T08:50:10.944Z,28.71
2023-05-05T08:52:40.919Z,27.17
2023-05-05T08:55:15.246Z,26.92
2023-05-05T08:57:47.160Z,27.75
2023-05-05T09:00:18.995Z,27.10
2023-05-05T09:02:47.895Z,26.72
2023-05-05T09:05:16.140Z,25.86
2023-05-05T09:07:44.018Z,24.49
2023-05-05T09:10:12.960Z,24.00
2023-05-05T09:12:41.343Z,23.96
2023-05-05T09:15:09.964Z,23.45
2023-05-05T09:17:39.643Z,24.02
2023-05-05T09:20:09.182Z,24.48
2023-05-05T09:22:38.562Z,23.65
2023-05-05T09:25:07.887Z,23.44
2023-05-05T09:27:38.922Z,23.13
2023-05-05T09:30:08.257Z,23.84
2023-05-05T09:32:48.812Z,24.56
2023-05-05T09:35:17.088Z,25.02
2023-05-05T09:37:45.066Z,23.75
2023-05-05T09:40:15.292Z,24.24
2023-05-05T09:42:42.756Z,24.51
2023-05-05T09:45:27.609Z,25.97
2023-05-05T09:47:59.590Z,26.43
2023-05-05T09:50:30.507Z,26.32
2023-05-05T09:53:00.022Z,26.07
2023-05-05T09:55:28.013Z,26.56
2023-05-05T09:57:55.596Z,30.25
2023-05-05T10:00:23.481Z,28.39
2023-05-05T10:02:50.961Z,27.78
2023-05-05T10:05:20.074Z,27.14
2023-05-05T10:07:48.747Z,27.02
2023-05-05T10:10:18.395Z,27.60
2023-05-05T10:12:47.445Z,27.91
2023-05-05T10:15:16.491Z,28.44
2023-05-05T10:18:02.406Z,28.54
2023-05-05T10:20:37.426Z,27.93
2023-05-05T10:23:07.846Z,27.53
2023-05-05T10:25:43.044Z,27.81
2023-05-05T10:28:16.649Z,26.80
2023-05-05T10:30:46.984Z,27.10
2023-05-05T10:33:31.630Z,28.02
2023-05-05T10:36:05.265Z,26.73
2023-05-05T10:38:33.455Z,26.86
2023-05-05T10:41:02.299Z,26.36
2023-05-05T10:43:31.921Z,27.79
2023-05-05T10:46:00.551Z,28.34
2023-05-05T10:48:33.856Z,28.86
2023-05-05T10:51:14.176Z,29.56
2023-05-05T10:53:57.011Z,29.08
2023-05-05T10:56:28.849Z,27.89
2023-05-05T10:59:00.154Z,27.69
2023-05-05T11:01:33.398Z,28.42
2023-05-05T11:04:21.418Z,29.12
2023-05-05T11:07:25.875Z,28.04
2023-05-05T11:09:58.455Z,26.59
2023-05-05T11:12:25.989Z,25.93
2023-05-05T11:15:30.642Z,27.07
2023-05-05T11:17:59.128Z,28.14
2023-05-05T11:21:04.245Z,29.24
2023-05-05T11:23:33.050Z,29.98
2023-05-05T11:26:01.767Z,28.50
2023-05-05T11:28:31.101Z,28.21
2023-05-05T11:31:18.722Z,27.99
2023-05-05T11:33:46.578Z,28.01
2023-05-05T11:36:15.579Z,28.80
2023-05-05T11:38:56.014Z,29.97
2023-05-05T11:41:42.009Z,29.54
2023-05-05T11:44:10.472Z,29.69
2023-05-05T11:46:38.504Z,28.04
2023-05-05T11:49:06.207Z,28.03
2023-05-05T11:51:34.421Z,28.13
2023-05-05T11:54:03.403Z,28.21
2023-05-05T11:56:30.887Z,28.01
2023-05-05T11:59:10.516Z,26.42
2023-05-05T12:01:41.683Z,26.15
2023-05-05T12:04:09.593Z,25.45
2023-05-05T12:06:37.218Z,26.95
2023-05-05T12:09:06.169Z,27.18
2023-05-05T12:11:33.845Z,27.75
2023-05-05T12:14:11.110Z,29.58
2023-05-05T12:16:38.928Z,28.92
2023-05-05T12:19:07.875Z,29.16
2023-05-05T12:21:36.226Z,29.67
2023-05-05T12:24:03.756Z,30.09
2023-05-05T12:26:33.206Z,30.50
2023-05-05T12:29:01.723Z,33.14
2023-05-05T12:31:36.604Z,33.28
2023-05-05T12:34:05.253Z,34.27
2023-05-05T12:36:34.016Z,34.55
2023-05-05T12:39:01.629Z,33.22
2023-05-05T12:41:29.257Z,35.21
2023-05-05T12:43:59.580Z,35.76
2023-05-05T12:46:29.558Z,36.46
2023-05-05T12:49:01.750Z,33.60
2023-05-05T12:51:29.411Z,34.18
2023-05-05T12:54:05.430Z,36.26
2023-05-05T12:56:34.360Z,38.30
2023-05-05T12:59:05.314Z,37.09
2023-05-05T13:01:33.246Z,36.94
2023-05-05T13:04:11.843Z,36.54
2023-05-05T13:06:40.358Z,37.47
2023-05-05T13:09:09.934Z,36.91
2023-05-05T13:11:38.482Z,36.16
2023-05-05T13:14:08.216Z,36.18
2023-05-05T13:16:35.863Z,36.89
2023-05-05T13:19:03.399Z,39.90
2023-05-05T13:21:31.475Z,40.56
2023-05-05T13:24:08.217Z,41.86
2023-05-05T13:26:40.585Z,43.63
2023-05-05T13:29:09.364Z,43.37
2023-05-05T13:31:36.915Z,44.63
2023-05-05T13:34:04.399Z,44.33
2023-05-05T13:36:31.928Z,45.67
2023-05-05T13:38:59.390Z,45.87
2023-05-05T13:41:26.978Z,46.90
2023-05-05T13:43:54.476Z,52.00
2023-05-05T13:46:23.336Z,62.28
2023-05-05T13:48:56.052Z,79.36
2023-05-05T13:51:24.015Z,89.95
2023-05-05T13:53:51.460Z,100.00
2023-05-05T13:56:19.110Z,100.00
2023-05-05T13:58:46.569Z,100.00
2023-05-05T14:01:14.132Z,100.00
2023-05-05T14:03:43.029Z,100.00
2023-05-05T14:06:10.710Z,95.73
2023-05-05T14:08:38.181Z,88.11
2023-05-05T14:11:05.842Z,88.43
2023-05-05T14:13:33.316Z,83.65
2023-05-05T14:16:00.959Z,71.36
2023-05-05T14:18:28.556Z,79.58
2023-05-05T14:20:57.395Z,80.09
2023-05-05T14:23:24.866Z,78.35
2023-05-05T14:25:52.421Z,75.52
2023-05-05T14:28:19.864Z,75.74
2023-05-05T14:30:47.313Z,75.38
2023-05-05T14:33:14.755Z,73.57
2023-05-05T14:35:42.223Z,69.59
2023-05-05T14:38:11.044Z,69.72
2023-05-05T14:40:38.527Z,71.92
2023-05-05T14:43:06.096Z,68.77
2023-05-05T14:45:34.034Z,71.88
2023-05-05T14:48:01.545Z,68.50
2023-05-05T14:50:29.054Z,68.25
2023-05-05T14:52:56.553Z,66.82
2023-05-05T14:55:26.063Z,66.35
2023-05-05T14:57:53.527Z,63.61
2023-05-05T15:00:21.086Z,61.33
2023-05-05T15:02:49.013Z,63.48
2023-05-05T15:05:16.669Z,61.19
2023-05-05T15:07:44.152Z,65.44
2023-05-05T15:10:12.070Z,62.15
2023-05-05T15:12:42.154Z,63.71
2023-05-05T15:15:10.346Z,58.89
2023-05-05T15:17:38.698Z,58.71
2023-05-05T15:20:08.078Z,58.53
2023-05-05T15:22:35.696Z,58.69
2023-05-05T15:25:03.311Z,62.78
2023-05-05T15:27:31.710Z,64.66
2023-05-05T15:30:01.108Z,60.93
2023-05-05T15:32:28.663Z,62.35
2023-05-05T15:34:56.295Z,63.69
2023-05-05T15:37:23.866Z,66.84
2023-05-05T15:39:51.500Z,71.36
2023-05-05T15:42:18.970Z,73.35
2023-05-05T15:44:46.424Z,69.23
2023-05-05T15:47:15.309Z,68.38
2023-05-05T15:49:42.840Z,73.27
2023-05-05T15:52:10.360Z,68.31
2023-05-05T15:54:37.843Z,68.22
2023-05-05T15:57:05.318Z,66.84
2023-05-05T15:59:32.787Z,65.93
2023-05-05T16:02:00.396Z,68.17
2023-05-05T16:04:29.184Z,70.28
2023-05-05T16:06:57.954Z,66.94
2023-05-05T16:09:25.441Z,70.88
2023-05-05T16:11:53.869Z,73.79
2023-05-05T16:14:21.366Z,75.19
2023-05-05T16:16:48.874Z,74.12
2023-05-05T16:19:16.544Z,72.32
2023-05-05T16:21:45.414Z,71.82
2023-05-05T16:24:16.017Z,71.78
2023-05-05T16:26:43.621Z,69.93
2023-05-05T16:29:11.254Z,67.06
2023-05-05T16:31:39.011Z,69.22
2023-05-05T16:34:06.926Z,69.78
2023-05-05T16:36:34.413Z,68.35
2023-05-05T16:39:03.267Z,68.87
2023-05-05T16:41:30.793Z,68.87
2023-05-05T16:43:58.336Z,66.23
2023-05-05T16:46:25.902Z,63.65
2023-05-05T16:48:53.719Z,62.48
2023-05-05T16:51:21.223Z,63.19
2023-05-05T16:53:49.138Z,60.18
2023-05-05T16:56:17.997Z,59.56
2023-05-05T16:58:45.466Z,59.07
2023-05-05T17:01:12.962Z,58.30
2023-05-05T17:03:40.493Z,57.88
2023-05-05T17:06:08.089Z,57.95
2023-05-05T17:08:35.655Z,56.00
2023-05-05T17:11:03.141Z,57.20
2023-05-05T17:13:31.973Z,56.67
2023-05-05T17:15:59.472Z,59.26
2023-05-05T17:18:26.930Z,57.69
2023-05-05T17:20:54.398Z,58.58
2023-05-05T17:23:22.053Z,58.79
2023-05-05T17:25:49.696Z,58.93
2023-05-05T17:28:17.511Z,60.82
2023-05-05T17:30:46.795Z,62.99
2023-05-05T17:33:16.732Z,64.72
2023-05-05T17:35:44.196Z,64.70
2023-05-05T17:38:11.782Z,69.44
2023-05-05T17:40:39.315Z,71.83
2023-05-05T17:43:07.387Z,73.02
2023-05-05T17:45:34.878Z,75.80
2023-05-05T17:48:03.761Z,77.80
2023-05-05T17:50:31.229Z,78.94
2023-05-05T17:52:58.694Z,81.19
2023-05-05T17:55:26.371Z,79.68
2023-05-05T17:57:55.716Z,78.45
2023-05-05T18:00:23.431Z,73.58
2023-05-05T18:02:50.999Z,70.26
2023-05-05T18:05:20.548Z,69.52
2023-05-05T18:07:48.020Z,68.93
2023-05-05T18:10:16.570Z,68.10
2023-05-05T18:12:44.075Z,74.44
2023-05-05T18:15:12.664Z,74.94
2023-05-05T18:17:40.407Z,73.30
2023-05-05T18:20:08.951Z,79.45
2023-05-05T18:22:37.762Z,79.89
2023-05-05T18:25:07.877Z,75.80
2023-05-05T18:27:35.937Z,73.31
2023-05-05T18:30:04.646Z,73.01
2023-05-05T18:32:32.194Z,72.85
2023-05-05T18:34:59.715Z,73.18
2023-05-05T18:37:27.816Z,73.01
2023-05-05T18:39:56.593Z,73.68
2023-05-05T18:42:24.073Z,77.42
2023-05-05T18:44:51.505Z,85.15
2023-05-05T18:47:20.362Z,85.97
2023-05-05T18:49:47.858Z,87.13
2023-05-05T18:52:15.565Z,88.14
2023-05-05T18:54:43.072Z,91.79
2023-05-05T18:57:11.892Z,100.00
2023-05-05T18:59:39.342Z,95.71
2023-05-05T19:02:07.830Z,93.25
2023-05-05T19:04:37.890Z,90.86
2023-05-05T19:07:05.976Z,88.83
2023-05-05T19:09:33.681Z,85.82
2023-05-05T19:12:02.305Z,88.32
2023-05-05T19:14:31.100Z,93.59
2023-05-05T19:16:59.030Z,90.09
2023-05-05T19:19:26.768Z,87.80
2023-05-05T19:21:54.297Z,93.70
2023-05-05T19:24:21.772Z,100.00
2023-05-05T19:26:49.362Z,100.00
2023-05-05T19:29:16.957Z,100.00
2023-05-05T19:31:45.779Z,100.00
2023-05-05T19:34:13.249Z,100.00
2023-05-05T19:36:40.724Z,100.00
2023-05-05T19:39:08.214Z,100.00
2023-05-05T19:41:36.229Z,100.00
2023-05-05T19:44:03.720Z,100.00
2023-05-05T19:46:31.233Z,100.00
2023-05-05T19:49:00.196Z,100.00
2023-05-05T19:51:28.028Z,100.00
2023-05-05T19:53:55.570Z,100.00
2023-05-05T19:56:23.891Z,100.00
2023-05-05T19:58:54.574Z,100.00
2023-05-05T20:01:22.093Z,100.00
2023-05-05T20:03:49.806Z,100.00
2023-05-05T20:06:18.771Z,100.00
2023-05-05T20:08:46.263Z,100.00
2023-05-05T20:11:15.258Z,100.00
2023-05-05T20:13:43.019Z,100.00
2023-05-05T20:16:10.740Z,100.00
2023-05-05T20:18:38.390Z,100.00
2023-05-05T20:21:05.899Z,100.00
2023-05-05T20:23:34.885Z,100.00
2023-05-05T20:26:02.484Z,100.00
2023-05-05T20:28:31.336Z,100.00
2023-05-05T20:31:00.479Z,100.00
2023-05-05T20:33:28.628Z,100.00
2023-05-05T20:35:56.192Z,100.00
2023-05-05T20:38:23.878Z,100.00
2023-05-05T20:40:52.992Z,100.00
2023-05-05T20:43:21.098Z,100.00
2023-05-05T20:45:48.601Z,100.00
2023-05-05T20:48:16.122Z,100.00
2023-05-05T20:50:44.092Z,100.00
2023-05-05T20:53:13.712Z,100.00
2023-05-05T20:55:41.545Z,100.00
2023-05-05T20:58:10.417Z,100.00
2023-05-05T21:00:37.935Z,100.00
2023-05-05T21:03:05.954Z,100.00
2023-05-05T21:05:33.514Z,100.00
2023-05-05T21:08:01.415Z,100.00
2023-05-05T21:10:31.904Z,100.00
2023-05-05T21:12:59.469Z,100.00
2023-05-05T21:15:28.457Z,100.00
2023-05-05T21:17:57.163Z,100.00
2023-05-05T21:20:24.764Z,100.00
2023-05-05T21:22:52.317Z,100.00
2023-05-05T21:25:21.462Z,100.00
2023-05-05T21:27:49.698Z,100.00
2023-05-05T21:30:17.680Z,100.00
2023-05-05T21:32:46.730Z,100.00
2023-05-05T21:35:14.226Z,100.00
2023-05-05T21:37:41.748Z,100.00
2023-05-05T21:40:13.924Z,100.00
2023-05-05T21:42:42.145Z,100.00
2023-05-05T21:45:11.272Z,100.00
2023-05-05T21:47:38.843Z,100.00
2023-05-05T21:50:09.625Z,100.00
2023-05-05T21:52:37.271Z,100.00
2023-05-05T21:55:05.631Z,100.00
2023-05-05T21:57:33.087Z,100.00
2023-05-05T22:00:00.565Z,100.00
2023-05-05T22:02:28.117Z,100.00
2023-05-05T22:04:55.666Z,100.00
2023-05-05T22:07:25.826Z,100.00
2023-05-05T22:09:53.476Z,100.00
2023-05-05T22:12:20.929Z,100.00
2023-05-05T22:14:48.411Z,100.00
2023-05-05T22:17:16.069Z,100.00
2023-05-05T22:19:43.536Z,100.00
2023-05-05T22:22:10.997Z,100.00
2023-05-05T22:24:39.766Z,100.00
2023-05-05T22:27:07.211Z,100.00
2023-05-05T22:29:34.647Z,100.00
2023-05-05T22:32:02.117Z,100.00
2023-05-05T22:34:29.798Z,100.00
2023-05-05T22:36:57.313Z,100.00
2023-05-05T22:39:24.784Z,100.00
2023-05-05T22:41:53.621Z,100.00
2023-05-05T22:44:21.106Z,100.00
2023-05-05T22:46:48.594Z,100.00
2023-05-05T22:49:16.626Z,100.00
2023-05-05T22:51:44.127Z,100.00
2023-05-05T22:54:11.612Z,100.00
2023-05-05T22:56:39.354Z,100.00
2023-05-05T22:59:08.180Z,100.00
2023-05-05T23:01:36.170Z,100.00
2023-05-05T23:04:03.742Z,100.00
2023-05-05T23:06:32.113Z,100.00
2023-05-05T23:08:59.570Z,100.00
2023-05-05T23:11:27.242Z,100.00
2023-05-05T23:13:54.685Z,100.00
2023-05-05T23:16:23.519Z,100.00
2023-05-05T23:18:50.982Z,100.00
2023-05-05T23:21:18.435Z,100.00
2023-05-05T23:23:46.017Z,100.00
2023-05-05T23:26:14.266Z,100.00
2023-05-05T23:28:41.762Z,100.00
2023-05-05T23:31:09.913Z,100.00
2023-05-05T23:33:38.736Z,100.00
2023-05-05T23:36:06.636Z,100.00
2023-05-05T23:38:34.075Z,100.00
2023-05-05T23:41:01.530Z,100.00
2023-05-05T23:43:28.990Z,100.00
2023-05-05T23:45:56.478Z,100.00
2023-05-05T23:48:24.009Z,100.00
2023-05-05T23:50:53.336Z,100.00
2023-05-05T23:53:20.831Z,100.00
2023-05-05T23:55:48.335Z,100.00
2023-05-05T23:58:15.799Z,100.00
